Tropical Cyclones
[Index]
Main Index Home Page Stock Weather Photos Extreme Storms Discussion Storm News and Storm Chasing Reports Tropical Cyclones / Hurricanes / Typhoons Weather Data and Links Wild Fires / Bushfires Weather Observation Techniques Weather Picture Catalogue Tornado Pictures and Reports Stock Video Footage and DVDs for sale
Season 2009-2010 Tropical Cyclone 201011 Track Map
Season 2009-2010 Summaries: [BoM-AU] [JTWC-AU] [JTWC-SIO] [JTWC-SPAC] [JTWC-SH]
<<- Previous TC | JTWC 2009-2010 Season | Next TC ->>

click for intensity scale information  Lat/long Grid: Show Hide

 Date Labels: Show Hide

Joint Typhoon Warning Centre Cyclone Data

Name: 201011

26 Jan 2010 18:00 UTC to 31 Jan 2010 06:00 UTC

    date/time    lat    long     hPa   cat  kts
2010-01-26 18   16.8    58.4    1007         20          
2010-01-27 00   17.5    59.2    1004         25          
2010-01-27 06   18.3    59.7    1000         30          
2010-01-27 12   19.2    59.8    1000         30          
2010-01-27 18   20.1    59.5     996         35          
2010-01-28 00   20.6    59.0     996         35          
2010-01-28 06   21.3    59.0     996         35          
2010-01-28 12   21.8    59.5    1000         30          
2010-01-28 18   22.8    59.6     996         35          
2010-01-29 00   24.0    59.0     996         35          
2010-01-29 06   25.0    59.8    1000         30          
2010-01-29 12   26.5    59.8    1000         30          
2010-01-29 18   27.4    60.5    1000         30          
2010-01-30 00   28.4    61.0    1000         30          
2010-01-30 06   29.2    61.9    1000         30          
2010-01-30 12   30.2    62.7    1004         25          
2010-01-30 18   31.0    63.8    1007         20          
2010-01-31 00   32.0    65.2    1007         20          
2010-01-31 06   33.2    66.4    1007         20          
Winds are 1-min average.

Tropical cyclone tracks developed by Michael Bath using data from the Joint Typhoon Warning Centre Best Tracks and Google Maps.


[Australian Severe Weather index] [Copyright Notice] [Email Contacts] [Search This Site] [Privacy Policy]
Document: tropical_cyclone_201011.htm Updated: 28 June 2017